sensor_id;sensor_type;location;lat;lon;timestamp;pressure;altitude;pressure_sealevel;temperature;humidity
6349;BME280;3207;42.648;23.406;2023-07-28T00:01:34;99698.97;;;21.72;63.90
6349;BME280;3207;42.648;23.406;2023-07-28T00:04:01;99697.72;;;21.68;64.06
6349;BME280;3207;42.648;23.406;2023-07-28T00:06:32;99698.41;;;21.55;63.97
6349;BME280;3207;42.648;23.406;2023-07-28T00:08:59;99682.41;;;21.49;64.06
6349;BME280;3207;42.648;23.406;2023-07-28T00:11:26;99687.44;;;21.44;64.52
6349;BME280;3207;42.648;23.406;2023-07-28T00:13:53;99673.25;;;21.37;64.54
6349;BME280;3207;42.648;23.406;2023-07-28T00:16:21;99686.75;;;21.35;64.85
6349;BME280;3207;42.648;23.406;2023-07-28T00:18:48;99686.28;;;21.32;65.07
6349;BME280;3207;42.648;23.406;2023-07-28T00:21:14;99693.63;;;21.30;65.35
6349;BME280;3207;42.648;23.406;2023-07-28T00:23:41;99681.38;;;21.29;65.85
6349;BME280;3207;42.648;23.406;2023-07-28T00:26:08;99676.06;;;21.29;65.98
6349;BME280;3207;42.648;23.406;2023-07-28T00:28:35;99683.38;;;21.27;65.72
6349;BME280;3207;42.648;23.406;2023-07-28T00:31:02;99681.75;;;21.26;65.78
6349;BME280;3207;42.648;23.406;2023-07-28T00:33:30;99673.75;;;21.26;65.97
6349;BME280;3207;42.648;23.406;2023-07-28T00:35:57;99666.97;;;21.23;66.11
6349;BME280;3207;42.648;23.406;2023-07-28T00:38:23;99665.50;;;21.21;66.11
6349;BME280;3207;42.648;23.406;2023-07-28T00:40:50;99670.38;;;21.17;66.26
6349;BME280;3207;42.648;23.406;2023-07-28T00:43:17;99665.25;;;21.15;66.80
6349;BME280;3207;42.648;23.406;2023-07-28T00:45:44;99665.59;;;21.12;66.78
6349;BME280;3207;42.648;23.406;2023-07-28T00:48:13;99662.94;;;21.12;67.20
6349;BME280;3207;42.648;23.406;2023-07-28T00:50:41;99665.97;;;21.09;67.36
6349;BME280;3207;42.648;23.406;2023-07-28T00:53:08;99654.09;;;21.05;67.51
6349;BME280;3207;42.648;23.406;2023-07-28T00:55:36;99650.13;;;21.01;67.71
6349;BME280;3207;42.648;23.406;2023-07-28T00:58:03;99646.84;;;20.99;68.05
6349;BME280;3207;42.648;23.406;2023-07-28T01:00:30;99651.72;;;20.96;68.28
6349;BME280;3207;42.648;23.406;2023-07-28T01:02:57;99652.91;;;20.93;68.35
6349;BME280;3207;42.648;23.406;2023-07-28T01:05:31;99647.78;;;20.92;69.16
6349;BME280;3207;42.648;23.406;2023-07-28T01:08:06;99622.63;;;20.73;69.14
6349;BME280;3207;42.648;23.406;2023-07-28T01:10:38;99648.53;;;20.86;69.38
6349;BME280;3207;42.648;23.406;2023-07-28T01:13:05;99637.47;;;20.82;69.74
6349;BME280;3207;42.648;23.406;2023-07-28T01:15:32;99640.28;;;20.80;70.19
6349;BME280;3207;42.648;23.406;2023-07-28T01:17:58;99640.88;;;20.76;70.77
6349;BME280;3207;42.648;23.406;2023-07-28T01:20:29;99638.28;;;20.68;71.62
6349;BME280;3207;42.648;23.406;2023-07-28T01:23:08;99636.03;;;20.65;72.37
6349;BME280;3207;42.648;23.406;2023-07-28T01:25:43;99631.91;;;20.62;73.00
6349;BME280;3207;42.648;23.406;2023-07-28T01:28:15;99642.72;;;20.61;72.80
6349;BME280;3207;42.648;23.406;2023-07-28T01:30:43;99640.41;;;20.58;72.63
6349;BME280;3207;42.648;23.406;2023-07-28T01:33:11;99643.47;;;20.55;72.75
6349;BME280;3207;42.648;23.406;2023-07-28T01:35:38;99636.84;;;20.51;72.52
6349;BME280;3207;42.648;23.406;2023-07-28T01:38:05;99638.22;;;20.46;72.18
6349;BME280;3207;42.648;23.406;2023-07-28T01:40:32;99634.50;;;20.41;71.71
6349;BME280;3207;42.648;23.406;2023-07-28T01:42:59;99625.06;;;20.38;71.33
6349;BME280;3207;42.648;23.406;2023-07-28T01:45:27;99628.88;;;20.36;71.05
6349;BME280;3207;42.648;23.406;2023-07-28T01:47:54;99631.69;;;20.34;71.09
6349;BME280;3207;42.648;23.406;2023-07-28T01:50:21;99627.78;;;20.30;71.08
6349;BME280;3207;42.648;23.406;2023-07-28T01:52:47;99626.94;;;20.30;71.45
6349;BME280;3207;42.648;23.406;2023-07-28T01:55:14;99622.00;;;20.27;71.75
6349;BME280;3207;42.648;23.406;2023-07-28T01:57:50;99620.53;;;20.24;72.03
6349;BME280;3207;42.648;23.406;2023-07-28T02:00:18;99621.56;;;20.23;72.29
6349;BME280;3207;42.648;23.406;2023-07-28T02:02:46;99596.75;;;20.01;72.21
6349;BME280;3207;42.648;23.406;2023-07-28T02:05:13;99622.44;;;20.16;72.32
6349;BME280;3207;42.648;23.406;2023-07-28T02:07:40;99630.16;;;20.10;72.78
6349;BME280;3207;42.648;23.406;2023-07-28T02:10:08;99626.84;;;20.08;73.02
6349;BME280;3207;42.648;23.406;2023-07-28T02:12:35;99630.69;;;20.06;73.32
6349;BME280;3207;42.648;23.406;2023-07-28T02:15:03;99625.72;;;20.03;73.47
6349;BME280;3207;42.648;23.406;2023-07-28T02:17:30;99633.59;;;19.96;73.58
6349;BME280;3207;42.648;23.406;2023-07-28T02:19:58;99629.66;;;19.92;74.24
6349;BME280;3207;42.648;23.406;2023-07-28T02:22:25;99639.16;;;19.87;74.31
6349;BME280;3207;42.648;23.406;2023-07-28T02:24:52;99634.41;;;19.82;74.53
6349;BME280;3207;42.648;23.406;2023-07-28T02:27:18;99627.00;;;19.78;74.78
6349;BME280;3207;42.648;23.406;2023-07-28T02:29:45;99632.16;;;19.71;74.73
6349;BME280;3207;42.648;23.406;2023-07-28T02:32:13;99625.47;;;19.60;75.07
6349;BME280;3207;42.648;23.406;2023-07-28T02:34:40;99627.38;;;19.52;75.12
6349;BME280;3207;42.648;23.406;2023-07-28T02:37:08;99618.63;;;19.43;75.48
6349;BME280;3207;42.648;23.406;2023-07-28T02:39:35;99629.22;;;19.43;75.39
6349;BME280;3207;42.648;23.406;2023-07-28T02:42:02;99634.53;;;19.43;75.46
6349;BME280;3207;42.648;23.406;2023-07-28T02:44:29;99627.13;;;19.38;75.45
6349;BME280;3207;42.648;23.406;2023-07-28T02:46:55;99621.69;;;19.32;75.34
6349;BME280;3207;42.648;23.406;2023-07-28T02:49:22;99615.47;;;19.25;75.65
6349;BME280;3207;42.648;23.406;2023-07-28T02:51:49;99619.75;;;19.26;75.46
6349;BME280;3207;42.648;23.406;2023-07-28T02:54:17;99615.81;;;19.22;75.56
6349;BME280;3207;42.648;23.406;2023-07-28T02:56:44;99605.03;;;19.23;75.49
6349;BME280;3207;42.648;23.406;2023-07-28T02:59:11;99596.97;;;19.17;75.51
6349;BME280;3207;42.648;23.406;2023-07-28T03:01:37;99611.81;;;19.26;75.68
6349;BME280;3207;42.648;23.406;2023-07-28T03:04:04;99610.16;;;19.25;75.63
6349;BME280;3207;42.648;23.406;2023-07-28T03:06:31;99618.13;;;19.25;75.46
6349;BME280;3207;42.648;23.406;2023-07-28T03:08:58;99624.91;;;19.27;75.69
6349;BME280;3207;42.648;23.406;2023-07-28T03:11:26;99615.91;;;19.28;75.88
6349;BME280;3207;42.648;23.406;2023-07-28T03:13:53;99591.69;;;19.17;75.76
6349;BME280;3207;42.648;23.406;2023-07-28T03:16:20;99611.66;;;19.27;76.02
6349;BME280;3207;42.648;23.406;2023-07-28T03:18:47;99615.41;;;19.33;75.97
6349;BME280;3207;42.648;23.406;2023-07-28T03:21:14;99617.38;;;19.31;75.93
6349;BME280;3207;42.648;23.406;2023-07-28T03:23:41;99611.66;;;19.27;75.76
6349;BME280;3207;42.648;23.406;2023-07-28T03:26:07;99614.09;;;19.29;76.05
6349;BME280;3207;42.648;23.406;2023-07-28T03:28:36;99622.69;;;19.31;76.08
6349;BME280;3207;42.648;23.406;2023-07-28T03:31:02;99632.66;;;19.29;75.74
6349;BME280;3207;42.648;23.406;2023-07-28T03:33:29;99631.47;;;19.31;75.82
6349;BME280;3207;42.648;23.406;2023-07-28T03:35:56;99621.03;;;19.30;75.78
6349;BME280;3207;42.648;23.406;2023-07-28T03:38:23;99628.66;;;19.33;75.77
6349;BME280;3207;42.648;23.406;2023-07-28T03:40:50;99618.03;;;19.33;75.98
6349;BME280;3207;42.648;23.406;2023-07-28T03:43:17;99623.00;;;19.36;75.89
6349;BME280;3207;42.648;23.406;2023-07-28T03:45:45;99612.69;;;19.41;75.88
6349;BME280;3207;42.648;23.406;2023-07-28T03:48:12;99615.31;;;19.41;75.86
6349;BME280;3207;42.648;23.406;2023-07-28T03:50:39;99621.09;;;19.45;75.92
6349;BME280;3207;42.648;23.406;2023-07-28T03:53:06;99623.41;;;19.48;75.87
6349;BME280;3207;42.648;23.406;2023-07-28T03:55:32;99622.44;;;19.49;75.68
6349;BME280;3207;42.648;23.406;2023-07-28T03:57:59;99625.91;;;19.49;75.85
6349;BME280;3207;42.648;23.406;2023-07-28T04:00:26;99617.97;;;19.49;75.68
6349;BME280;3207;42.648;23.406;2023-07-28T04:02:54;99620.25;;;19.52;76.17
6349;BME280;3207;42.648;23.406;2023-07-28T04:05:21;99623.38;;;19.56;75.88
6349;BME280;3207;42.648;23.406;2023-07-28T04:07:48;99631.16;;;19.57;75.90
6349;BME280;3207;42.648;23.406;2023-07-28T04:10:15;99635.28;;;19.60;75.57
6349;BME280;3207;42.648;23.406;2023-07-28T04:12:41;99627.94;;;19.62;75.37
6349;BME280;3207;42.648;23.406;2023-07-28T04:15:09;99630.25;;;19.65;75.19
6349;BME280;3207;42.648;23.406;2023-07-28T04:17:36;99634.72;;;19.64;75.24
6349;BME280;3207;42.648;23.406;2023-07-28T04:20:06;99637.19;;;19.66;75.44
6349;BME280;3207;42.648;23.406;2023-07-28T04:22:33;99629.41;;;19.64;75.33
6349;BME280;3207;42.648;23.406;2023-07-28T04:24:59;99637.69;;;19.69;75.32
6349;BME280;3207;42.648;23.406;2023-07-28T04:27:26;99638.31;;;19.71;75.26
6349;BME280;3207;42.648;23.406;2023-07-28T04:29:53;99642.59;;;19.72;75.25
6349;BME280;3207;42.648;23.406;2023-07-28T04:32:20;99643.91;;;19.77;75.14
6349;BME280;3207;42.648;23.406;2023-07-28T04:37:14;99648.88;;;19.80;74.74
6349;BME280;3207;42.648;23.406;2023-07-28T04:39:41;99648.47;;;19.83;74.52
6349;BME280;3207;42.648;23.406;2023-07-28T04:42:08;99652.59;;;19.85;73.88
6349;BME280;3207;42.648;23.406;2023-07-28T04:44:36;99654.09;;;19.88;73.52
6349;BME280;3207;42.648;23.406;2023-07-28T04:47:03;99660.66;;;19.92;73.27
6349;BME280;3207;42.648;23.406;2023-07-28T04:49:30;99652.00;;;19.98;73.20
6349;BME280;3207;42.648;23.406;2023-07-28T04:51:56;99651.66;;;20.01;72.97
6349;BME280;3207;42.648;23.406;2023-07-28T04:54:25;99652.75;;;20.06;72.83
6349;BME280;3207;42.648;23.406;2023-07-28T04:56:51;99650.16;;;20.13;71.92
6349;BME280;3207;42.648;23.406;2023-07-28T04:59:19;99653.03;;;20.12;71.45
6349;BME280;3207;42.648;23.406;2023-07-28T05:01:45;99650.47;;;20.18;70.94
6349;BME280;3207;42.648;23.406;2023-07-28T05:04:12;99643.34;;;20.19;70.77
6349;BME280;3207;42.648;23.406;2023-07-28T05:06:39;99651.38;;;20.25;70.17
6349;BME280;3207;42.648;23.406;2023-07-28T05:09:06;99645.06;;;20.26;70.04
6349;BME280;3207;42.648;23.406;2023-07-28T05:11:34;99644.97;;;20.34;69.85
6349;BME280;3207;42.648;23.406;2023-07-28T05:14:01;99639.81;;;20.41;69.60
6349;BME280;3207;42.648;23.406;2023-07-28T05:16:28;99646.19;;;20.46;69.35
6349;BME280;3207;42.648;23.406;2023-07-28T05:18:55;99644.47;;;20.54;69.15
6349;BME280;3207;42.648;23.406;2023-07-28T05:21:21;99648.84;;;20.61;69.29
6349;BME280;3207;42.648;23.406;2023-07-28T05:23:48;99649.31;;;20.65;68.70
6349;BME280;3207;42.648;23.406;2023-07-28T05:26:15;99646.09;;;20.69;68.69
6349;BME280;3207;42.648;23.406;2023-07-28T05:28:43;99640.88;;;20.76;68.53
6349;BME280;3207;42.648;23.406;2023-07-28T05:31:10;99651.75;;;20.81;68.65
6349;BME280;3207;42.648;23.406;2023-07-28T05:33:38;99648.72;;;20.84;68.61
6349;BME280;3207;42.648;23.406;2023-07-28T05:36:05;99640.75;;;20.84;68.55
6349;BME280;3207;42.648;23.406;2023-07-28T05:38:32;99643.28;;;20.92;68.73
6349;BME280;3207;42.648;23.406;2023-07-28T05:41:00;99644.59;;;20.96;68.34
6349;BME280;3207;42.648;23.406;2023-07-28T05:43:28;99651.97;;;21.01;68.03
6349;BME280;3207;42.648;23.406;2023-07-28T05:45:57;99647.66;;;21.00;67.87
6349;BME280;3207;42.648;23.406;2023-07-28T05:48:24;99647.19;;;21.11;67.76
6349;BME280;3207;42.648;23.406;2023-07-28T05:50:51;99649.75;;;21.19;67.84
6349;BME280;3207;42.648;23.406;2023-07-28T05:53:19;99654.13;;;21.27;67.72
6349;BME280;3207;42.648;23.406;2023-07-28T05:55:46;99649.06;;;21.32;67.79
6349;BME280;3207;42.648;23.406;2023-07-28T05:58:13;99647.50;;;21.37;67.97
6349;BME280;3207;42.648;23.406;2023-07-28T06:00:40;99645.91;;;21.43;68.10
6349;BME280;3207;42.648;23.406;2023-07-28T06:03:10;99660.09;;;21.50;67.84
6349;BME280;3207;42.648;23.406;2023-07-28T06:05:38;99662.00;;;21.56;68.17
6349;BME280;3207;42.648;23.406;2023-07-28T06:08:06;99644.38;;;21.55;68.17
6349;BME280;3207;42.648;23.406;2023-07-28T06:10:33;99661.94;;;21.71;67.82
6349;BME280;3207;42.648;23.406;2023-07-28T06:13:00;99667.94;;;21.79;67.65
6349;BME280;3207;42.648;23.406;2023-07-28T06:15:27;99659.16;;;21.85;67.46
6349;BME280;3207;42.648;23.406;2023-07-28T06:17:53;99663.72;;;21.91;67.55
6349;BME280;3207;42.648;23.406;2023-07-28T06:20:21;99664.34;;;21.93;67.22
6349;BME280;3207;42.648;23.406;2023-07-28T06:22:48;99673.25;;;22.01;66.93
6349;BME280;3207;42.648;23.406;2023-07-28T06:25:23;99665.13;;;22.09;66.32
6349;BME280;3207;42.648;23.406;2023-07-28T06:27:50;99664.97;;;22.17;66.49
6349;BME280;3207;42.648;23.406;2023-07-28T06:30:17;99667.47;;;22.25;66.46
6349;BME280;3207;42.648;23.406;2023-07-28T06:32:43;99672.84;;;22.32;65.71
6349;BME280;3207;42.648;23.406;2023-07-28T06:35:10;99664.94;;;22.45;65.90
6349;BME280;3207;42.648;23.406;2023-07-28T06:37:38;99667.63;;;22.51;65.62
6349;BME280;3207;42.648;23.406;2023-07-28T06:40:07;99672.59;;;22.61;65.34
6349;BME280;3207;42.648;23.406;2023-07-28T06:42:35;99675.19;;;22.76;65.42
6349;BME280;3207;42.648;23.406;2023-07-28T06:45:03;99671.53;;;22.90;65.50
6349;BME280;3207;42.648;23.406;2023-07-28T06:47:30;99665.41;;;23.03;64.73
6349;BME280;3207;42.648;23.406;2023-07-28T06:49:57;99665.03;;;23.12;64.01
6349;BME280;3207;42.648;23.406;2023-07-28T06:52:24;99635.25;;;23.02;63.73
6349;BME280;3207;42.648;23.406;2023-07-28T06:54:52;99660.56;;;23.26;63.39
6349;BME280;3207;42.648;23.406;2023-07-28T06:57:20;99653.41;;;23.40;62.87
6349;BME280;3207;42.648;23.406;2023-07-28T06:59:47;99654.50;;;23.52;62.46
6349;BME280;3207;42.648;23.406;2023-07-28T07:02:13;99651.41;;;23.68;62.05
6349;BME280;3207;42.648;23.406;2023-07-28T07:04:41;99653.06;;;23.82;61.62
6349;BME280;3207;42.648;23.406;2023-07-28T07:07:08;99655.50;;;23.97;61.51
6349;BME280;3207;42.648;23.406;2023-07-28T07:09:35;99657.56;;;24.15;61.25
6349;BME280;3207;42.648;23.406;2023-07-28T07:12:04;99667.03;;;24.24;60.47
6349;BME280;3207;42.648;23.406;2023-07-28T07:14:31;99655.50;;;24.36;58.87
6349;BME280;3207;42.648;23.406;2023-07-28T07:16:59;99659.56;;;24.52;58.50
6349;BME280;3207;42.648;23.406;2023-07-28T07:19:27;99653.94;;;24.73;57.91
6349;BME280;3207;42.648;23.406;2023-07-28T07:21:54;99659.44;;;24.85;56.90
6349;BME280;3207;42.648;23.406;2023-07-28T07:24:20;99656.72;;;24.98;55.98
6349;BME280;3207;42.648;23.406;2023-07-28T07:26:47;99668.16;;;25.19;56.09
6349;BME280;3207;42.648;23.406;2023-07-28T07:29:15;99659.34;;;25.43;55.65
6349;BME280;3207;42.648;23.406;2023-07-28T07:31:42;99666.66;;;25.61;54.93
6349;BME280;3207;42.648;23.406;2023-07-28T07:34:09;99665.97;;;25.72;54.25
6349;BME280;3207;42.648;23.406;2023-07-28T07:36:36;99666.91;;;25.84;53.83
6349;BME280;3207;42.648;23.406;2023-07-28T07:39:04;99676.03;;;26.01;53.62
6349;BME280;3207;42.648;23.406;2023-07-28T07:41:31;99666.22;;;26.13;53.11
6349;BME280;3207;42.648;23.406;2023-07-28T07:43:59;99672.47;;;26.32;52.70
6349;BME280;3207;42.648;23.406;2023-07-28T07:46:27;99679.16;;;26.41;51.57
6349;BME280;3207;42.648;23.406;2023-07-28T07:48:54;99665.41;;;26.56;51.36
6349;BME280;3207;42.648;23.406;2023-07-28T07:51:21;99668.50;;;26.71;51.30
6349;BME280;3207;42.648;23.406;2023-07-28T07:53:47;99673.72;;;26.84;50.97
6349;BME280;3207;42.648;23.406;2023-07-28T07:56:14;99666.59;;;26.96;50.75
6349;BME280;3207;42.648;23.406;2023-07-28T07:58:42;99663.50;;;27.11;50.28
6349;BME280;3207;42.648;23.406;2023-07-28T08:01:09;99665.75;;;27.26;50.21
6349;BME280;3207;42.648;23.406;2023-07-28T08:03:37;99670.94;;;27.39;49.72
6349;BME280;3207;42.648;23.406;2023-07-28T08:06:04;99665.97;;;27.54;49.61
6349;BME280;3207;42.648;23.406;2023-07-28T08:08:31;99674.81;;;27.73;49.16
6349;BME280;3207;42.648;23.406;2023-07-28T08:10:57;99671.09;;;27.86;48.87
6349;BME280;3207;42.648;23.406;2023-07-28T08:13:25;99666.53;;;27.86;48.26
6349;BME280;3207;42.648;23.406;2023-07-28T08:15:53;99662.31;;;27.90;48.46
6349;BME280;3207;42.648;23.406;2023-07-28T08:18:19;99667.00;;;28.07;48.01
6349;BME280;3207;42.648;23.406;2023-07-28T08:20:48;99668.41;;;28.21;48.01
6349;BME280;3207;42.648;23.406;2023-07-28T08:23:14;99671.31;;;28.42;48.05
6349;BME280;3207;42.648;23.406;2023-07-28T08:25:41;99657.16;;;28.59;47.58
6349;BME280;3207;42.648;23.406;2023-07-28T08:28:08;99661.44;;;28.71;47.05
6349;BME280;3207;42.648;23.406;2023-07-28T08:30:35;99659.81;;;28.82;46.49
6349;BME280;3207;42.648;23.406;2023-07-28T08:33:02;99655.19;;;28.94;45.94
6349;BME280;3207;42.648;23.406;2023-07-28T08:35:29;99660.88;;;29.09;45.67
6349;BME280;3207;42.648;23.406;2023-07-28T08:37:57;99676.75;;;29.23;46.02
6349;BME280;3207;42.648;23.406;2023-07-28T08:40:25;99666.03;;;29.39;45.51
6349;BME280;3207;42.648;23.406;2023-07-28T08:42:53;99667.91;;;29.39;45.49
6349;BME280;3207;42.648;23.406;2023-07-28T08:45:20;99678.28;;;29.47;45.00
6349;BME280;3207;42.648;23.406;2023-07-28T08:47:50;99672.75;;;29.54;44.69
6349;BME280;3207;42.648;23.406;2023-07-28T08:50:17;99671.38;;;29.23;45.38
6349;BME280;3207;42.648;23.406;2023-07-28T08:52:43;99680.94;;;29.02;45.93
6349;BME280;3207;42.648;23.406;2023-07-28T08:55:12;99672.75;;;28.97;46.38
6349;BME280;3207;42.648;23.406;2023-07-28T08:57:40;99676.44;;;29.36;45.65
6349;BME280;3207;42.648;23.406;2023-07-28T09:00:08;99690.91;;;29.92;44.71
6349;BME280;3207;42.648;23.406;2023-07-28T09:02:40;99678.97;;;30.21;43.29
6349;BME280;3207;42.648;23.406;2023-07-28T09:05:17;99682.22;;;30.40;43.18
6349;BME280;3207;42.648;23.406;2023-07-28T09:07:47;99687.41;;;30.63;42.41
6349;BME280;3207;42.648;23.406;2023-07-28T09:10:16;99683.41;;;31.09;41.98
6349;BME280;3207;42.648;23.406;2023-07-28T09:12:47;99688.22;;;30.64;43.02
6349;BME280;3207;42.648;23.406;2023-07-28T09:15:15;99687.16;;;30.86;43.04
6349;BME280;3207;42.648;23.406;2023-07-28T09:17:43;99680.56;;;30.99;42.56
6349;BME280;3207;42.648;23.406;2023-07-28T09:20:13;99686.97;;;30.93;42.82
6349;BME280;3207;42.648;23.406;2023-07-28T09:22:41;99690.47;;;31.15;41.90
6349;BME280;3207;42.648;23.406;2023-07-28T09:25:12;99689.41;;;30.94;42.73
6349;BME280;3207;42.648;23.406;2023-07-28T09:27:53;99697.97;;;31.08;42.26
6349;BME280;3207;42.648;23.406;2023-07-28T09:30:20;99695.69;;;31.00;42.26
6349;BME280;3207;42.648;23.406;2023-07-28T09:32:49;99682.34;;;31.10;42.70
6349;BME280;3207;42.648;23.406;2023-07-28T09:35:16;99688.97;;;31.24;42.17
6349;BME280;3207;42.648;23.406;2023-07-28T09:37:44;99678.88;;;30.93;42.75
6349;BME280;3207;42.648;23.406;2023-07-28T09:40:13;99669.16;;;30.92;42.73
6349;BME280;3207;42.648;23.406;2023-07-28T09:42:42;99676.00;;;30.39;43.93
6349;BME280;3207;42.648;23.406;2023-07-28T09:45:10;99667.69;;;29.91;45.60
6349;BME280;3207;42.648;23.406;2023-07-28T09:47:43;99667.19;;;30.27;44.19
6349;BME280;3207;42.648;23.406;2023-07-28T09:50:11;99668.69;;;30.56;43.60
6349;BME280;3207;42.648;23.406;2023-07-28T09:52:42;99670.34;;;30.79;42.62
6349;BME280;3207;42.648;23.406;2023-07-28T09:55:10;99671.53;;;31.10;41.89
6349;BME280;3207;42.648;23.406;2023-07-28T09:57:44;99655.81;;;30.85;42.62
6349;BME280;3207;42.648;23.406;2023-07-28T10:00:13;99661.34;;;30.96;42.09
6349;BME280;3207;42.648;23.406;2023-07-28T10:02:41;99659.97;;;30.93;42.47
6349;BME280;3207;42.648;23.406;2023-07-28T10:05:09;99654.72;;;30.60;42.95
6349;BME280;3207;42.648;23.406;2023-07-28T10:07:39;99648.38;;;30.32;43.24
6349;BME280;3207;42.648;23.406;2023-07-28T10:10:08;99643.44;;;30.46;43.27
6349;BME280;3207;42.648;23.406;2023-07-28T10:12:41;99648.06;;;30.67;42.88
6349;BME280;3207;42.648;23.406;2023-07-28T10:15:12;99640.19;;;30.66;41.89
6349;BME280;3207;42.648;23.406;2023-07-28T10:17:48;99645.84;;;30.86;41.73
6349;BME280;3207;42.648;23.406;2023-07-28T10:20:27;99641.09;;;31.20;40.71
6349;BME280;3207;42.648;23.406;2023-07-28T10:23:03;99645.09;;;31.12;40.94
6349;BME280;3207;42.648;23.406;2023-07-28T10:25:33;99645.22;;;31.27;40.19
6349;BME280;3207;42.648;23.406;2023-07-28T10:28:02;99624.00;;;31.41;40.63
6349;BME280;3207;42.648;23.406;2023-07-28T10:30:35;99636.31;;;31.59;40.00
6349;BME280;3207;42.648;23.406;2023-07-28T10:33:06;99626.88;;;31.93;38.95
6349;BME280;3207;42.648;23.406;2023-07-28T10:35:43;99636.19;;;32.13;38.69
6349;BME280;3207;42.648;23.406;2023-07-28T10:38:33;99629.31;;;32.37;37.95
6349;BME280;3207;42.648;23.406;2023-07-28T10:41:09;99634.00;;;32.52;37.22
6349;BME280;3207;42.648;23.406;2023-07-28T10:43:38;99635.81;;;32.36;37.86
6349;BME280;3207;42.648;23.406;2023-07-28T10:46:05;99636.97;;;32.50;36.75
6349;BME280;3207;42.648;23.406;2023-07-28T10:48:35;99632.34;;;32.51;37.27
6349;BME280;3207;42.648;23.406;2023-07-28T10:51:02;99630.22;;;32.58;36.99
6349;BME280;3207;42.648;23.406;2023-07-28T10:53:31;99629.16;;;32.69;36.87
6349;BME280;3207;42.648;23.406;2023-07-28T10:55:58;99629.25;;;32.27;37.42
6349;BME280;3207;42.648;23.406;2023-07-28T10:58:25;99636.66;;;32.47;37.52
6349;BME280;3207;42.648;23.406;2023-07-28T11:01:01;99633.47;;;32.60;36.96
6349;BME280;3207;42.648;23.406;2023-07-28T11:03:28;99621.84;;;32.64;37.36
6349;BME280;3207;42.648;23.406;2023-07-28T11:05:56;99623.47;;;32.65;37.37
6349;BME280;3207;42.648;23.406;2023-07-28T11:08:23;99620.66;;;32.40;37.40
6349;BME280;3207;42.648;23.406;2023-07-28T11:10:50;99623.34;;;32.35;38.03
6349;BME280;3207;42.648;23.406;2023-07-28T11:13:21;99616.91;;;32.46;38.34
6349;BME280;3207;42.648;23.406;2023-07-28T11:15:50;99606.66;;;32.58;37.77
6349;BME280;3207;42.648;23.406;2023-07-28T11:18:18;99613.94;;;32.53;37.45
6349;BME280;3207;42.648;23.406;2023-07-28T11:20:46;99603.06;;;32.43;37.70
6349;BME280;3207;42.648;23.406;2023-07-28T11:23:13;99612.38;;;32.67;37.01
6349;BME280;3207;42.648;23.406;2023-07-28T11:25:41;99609.66;;;32.67;36.65
6349;BME280;3207;42.648;23.406;2023-07-28T11:28:09;99612.19;;;32.84;36.79
6349;BME280;3207;42.648;23.406;2023-07-28T11:30:37;99594.91;;;33.05;36.75
6349;BME280;3207;42.648;23.406;2023-07-28T11:33:08;99598.75;;;33.34;35.75
6349;BME280;3207;42.648;23.406;2023-07-28T11:35:43;99598.19;;;33.58;35.60
6349;BME280;3207;42.648;23.406;2023-07-28T11:38:12;99592.78;;;33.68;35.77
6349;BME280;3207;42.648;23.406;2023-07-28T11:40:41;99590.59;;;33.80;35.68
6349;BME280;3207;42.648;23.406;2023-07-28T11:43:08;99591.63;;;34.04;34.75
6349;BME280;3207;42.648;23.406;2023-07-28T11:45:35;99588.28;;;34.23;33.61
6349;BME280;3207;42.648;23.406;2023-07-28T11:48:03;99581.25;;;34.27;33.96
6349;BME280;3207;42.648;23.406;2023-07-28T11:50:35;99577.16;;;34.34;34.09
6349;BME280;3207;42.648;23.406;2023-07-28T11:53:03;99565.16;;;34.50;32.95
6349;BME280;3207;42.648;23.406;2023-07-28T11:55:33;99573.03;;;34.47;33.27
6349;BME280;3207;42.648;23.406;2023-07-28T11:58:01;99581.78;;;34.34;32.75
6349;BME280;3207;42.648;23.406;2023-07-28T12:00:36;99572.91;;;34.08;33.04
6349;BME280;3207;42.648;23.406;2023-07-28T12:03:06;99575.56;;;34.13;33.27
6349;BME280;3207;42.648;23.406;2023-07-28T12:05:39;99566.94;;;34.06;33.66
6349;BME280;3207;42.648;23.406;2023-07-28T12:08:07;99568.50;;;34.22;33.37
6349;BME280;3207;42.648;23.406;2023-07-28T12:10:34;99562.28;;;34.16;33.52
6349;BME280;3207;42.648;23.406;2023-07-28T12:13:05;99560.44;;;33.97;33.79
6349;BME280;3207;42.648;23.406;2023-07-28T12:15:32;99555.84;;;33.92;34.13
6349;BME280;3207;42.648;23.406;2023-07-28T12:18:05;99555.84;;;33.72;34.86
6349;BME280;3207;42.648;23.406;2023-07-28T12:20:34;99554.16;;;34.11;34.06
6349;BME280;3207;42.648;23.406;2023-07-28T12:23:02;99559.28;;;34.28;33.11
6349;BME280;3207;42.648;23.406;2023-07-28T12:25:31;99553.47;;;34.50;31.86
6349;BME280;3207;42.648;23.406;2023-07-28T12:27:58;99559.94;;;34.54;31.00
6349;BME280;3207;42.648;23.406;2023-07-28T12:30:25;99543.72;;;34.44;30.18
6349;BME280;3207;42.648;23.406;2023-07-28T12:32:52;99538.34;;;34.24;31.10
6349;BME280;3207;42.648;23.406;2023-07-28T12:35:19;99560.66;;;34.15;32.04
6349;BME280;3207;42.648;23.406;2023-07-28T12:37:49;99554.75;;;33.98;32.87
6349;BME280;3207;42.648;23.406;2023-07-28T12:40:16;99548.25;;;33.99;32.98
6349;BME280;3207;42.648;23.406;2023-07-28T12:42:46;99542.88;;;33.79;34.02
6349;BME280;3207;42.648;23.406;2023-07-28T12:45:13;99549.94;;;33.75;34.44
6349;BME280;3207;42.648;23.406;2023-07-28T12:47:41;99558.53;;;33.97;33.32
6349;BME280;3207;42.648;23.406;2023-07-28T12:50:09;99555.75;;;34.12;32.19
6349;BME280;3207;42.648;23.406;2023-07-28T12:52:37;99562.81;;;34.19;32.45
6349;BME280;3207;42.648;23.406;2023-07-28T12:55:04;99560.09;;;34.29;31.60
6349;BME280;3207;42.648;23.406;2023-07-28T12:57:32;99557.94;;;34.26;32.08
6349;BME280;3207;42.648;23.406;2023-07-28T13:00:00;99554.56;;;34.44;31.74
6349;BME280;3207;42.648;23.406;2023-07-28T13:02:32;99564.41;;;34.35;31.54
6349;BME280;3207;42.648;23.406;2023-07-28T13:04:59;99565.50;;;34.24;31.53
6349;BME280;3207;42.648;23.406;2023-07-28T13:07:26;99562.81;;;34.13;31.02
6349;BME280;3207;42.648;23.406;2023-07-28T13:09:53;99552.00;;;34.03;31.20
6349;BME280;3207;42.648;23.406;2023-07-28T13:12:19;99548.03;;;33.75;32.16
6349;BME280;3207;42.648;23.406;2023-07-28T13:14:46;99542.06;;;33.78;32.82
6349;BME280;3207;42.648;23.406;2023-07-28T13:17:14;99551.00;;;33.59;33.34